Terminal Aerodrome Forecast
Issued by NWS Austin/San Antonio, TX

Home | Current Version | Previous Version | Text Only | Print | Product List | Glossary On
Versions: 1 2 3 4 5 6 7 8 9 10 11 12 13 14 15 16 17 18 19 20 21
000
FTUS44 KEWX 200600 AAA
TAFDRT
TAF AMD
KDRT 200603Z 2006/2106 10008KT P6SM BKN025 OVC050
     FM201100 10007KT P6SM BKN020
     FM201500 13008KT P6SM BKN050
     FM210200 09007KT P6SM BKN030=

USA.gov is the U.S. government's official web portal to all federal, state and local government web resources and services.